createdAt,value
2023-09-13T00:01:39.552Z,100218.22
2023-09-13T00:04:42.025Z,100215.72
2023-09-13T00:07:44.495Z,100211.22
2023-09-13T00:10:46.982Z,100220.13
2023-09-13T00:13:49.428Z,100221.34
2023-09-13T00:16:52.020Z,100209.31
2023-09-13T00:19:57.570Z,100213.28
2023-09-13T00:22:59.998Z,100216.47
2023-09-13T00:26:04.211Z,100211.66
2023-09-13T00:29:07.953Z,100220.50
2023-09-13T00:32:10.331Z,100224.09
2023-09-13T00:35:12.701Z,100221.38
2023-09-13T00:38:15.070Z,100221.94
2023-09-13T00:41:17.536Z,100229.16
2023-09-13T00:44:19.968Z,100225.69
2023-09-13T00:47:22.651Z,100231.66
2023-09-13T00:50:25.156Z,100240.50
2023-09-13T00:53:27.928Z,100224.03
2023-09-13T00:56:30.364Z,100223.50
2023-09-13T00:59:32.760Z,100231.91
2023-09-13T01:02:35.233Z,100221.34
2023-09-13T01:05:37.680Z,100213.16
2023-09-13T01:08:42.801Z,100214.81
2023-09-13T01:11:46.162Z,100220.91
2023-09-13T01:14:48.560Z,100211.06
2023-09-13T01:18:12.649Z,100217.25
2023-09-13T01:21:33.728Z,100212.84
2023-09-13T01:25:03.145Z,100213.53
2023-09-13T01:28:37.218Z,100208.69
2023-09-13T01:31:39.672Z,100214.16
2023-09-13T01:34:42.050Z,100211.88
2023-09-13T01:37:44.478Z,100206.69
2023-09-13T01:40:46.991Z,100204.31
2023-09-13T01:43:51.926Z,100203.84
2023-09-13T01:46:54.500Z,100198.34
2023-09-13T01:49:57.273Z,100203.66
2023-09-13T01:53:03.006Z,100207.72
2023-09-13T01:56:05.394Z,100208.34
2023-09-13T01:59:07.822Z,100205.09
2023-09-13T02:02:10.345Z,100210.53
2023-09-13T02:05:12.794Z,100197.00
2023-09-13T02:08:15.207Z,100193.41
2023-09-13T02:11:17.586Z,100180.47
2023-09-13T02:14:19.998Z,100201.13
2023-09-13T02:17:22.445Z,100203.47
2023-09-13T02:20:24.854Z,100194.06
2023-09-13T02:23:28.364Z,100198.75
2023-09-13T02:26:32.375Z,100197.66
2023-09-13T02:29:35.069Z,100201.84
2023-09-13T02:32:37.763Z,100204.41
2023-09-13T02:35:40.328Z,100197.25
2023-09-13T02:38:42.829Z,100209.34
2023-09-13T02:41:45.274Z,100206.19
2023-09-13T02:44:47.751Z,100208.66
2023-09-13T02:47:50.186Z,100203.00
2023-09-13T02:50:53.097Z,100214.34
2023-09-13T02:53:55.544Z,100211.13
2023-09-13T02:56:58.004Z,100207.38
2023-09-13T03:00:07.081Z,100205.47
2023-09-13T03:03:14.180Z,100213.47
2023-09-13T03:06:17.038Z,100211.50
2023-09-13T03:09:20.223Z,100210.75
2023-09-13T03:12:22.693Z,100207.69
2023-09-13T03:15:26.448Z,100208.75
2023-09-13T03:18:28.976Z,100212.19
2023-09-13T03:21:31.514Z,100208.00
2023-09-13T03:24:34.116Z,100220.50
2023-09-13T03:27:36.964Z,100214.69
2023-09-13T03:30:39.709Z,100220.34
2023-09-13T03:33:42.455Z,100222.47
2023-09-13T03:36:45.496Z,100224.13
2023-09-13T03:39:48.067Z,100215.19
2023-09-13T03:42:50.983Z,100223.03
2023-09-13T03:45:53.750Z,100223.59
2023-09-13T03:48:56.474Z,100220.31
2023-09-13T03:51:58.991Z,100225.03
2023-09-13T03:55:01.526Z,100222.53
2023-09-13T03:58:04.409Z,100210.50
2023-09-13T04:01:07.732Z,100222.22
2023-09-13T04:04:10.420Z,100227.13
2023-09-13T04:07:13.006Z,100230.53
2023-09-13T04:10:15.510Z,100235.72
2023-09-13T04:13:18.375Z,100243.84
2023-09-13T04:16:21.161Z,100232.81
2023-09-13T04:19:23.710Z,100237.75
2023-09-13T04:22:26.319Z,100226.13
2023-09-13T04:25:29.898Z,100234.78
2023-09-13T04:28:34.740Z,100225.09
2023-09-13T04:31:38.987Z,100229.47
2023-09-13T04:34:41.622Z,100225.63
2023-09-13T04:37:44.471Z,100225.19
2023-09-13T04:40:47.256Z,100225.66
2023-09-13T04:43:50.132Z,100219.13
2023-09-13T04:46:55.350Z,100228.44
2023-09-13T04:49:57.969Z,100231.84
2023-09-13T04:53:00.350Z,100226.47
2023-09-13T04:56:04.075Z,100223.03
2023-09-13T04:59:12.334Z,100228.66
2023-09-13T05:02:15.931Z,100235.78
2023-09-13T05:05:19.955Z,100235.91
2023-09-13T05:08:22.355Z,100237.59
2023-09-13T05:11:24.849Z,100241.97
2023-09-13T05:14:27.416Z,100239.59
2023-09-13T05:17:31.419Z,100239.81
2023-09-13T05:20:34.215Z,100248.00
2023-09-13T05:23:36.586Z,100249.34
2023-09-13T05:26:39.107Z,100253.09
2023-09-13T05:29:41.554Z,100250.56
2023-09-13T05:32:43.975Z,100247.75
2023-09-13T05:35:46.391Z,100244.88
2023-09-13T05:38:49.970Z,100247.41
2023-09-13T05:41:54.963Z,100251.91
2023-09-13T05:44:57.380Z,100260.13
2023-09-13T05:48:01.070Z,100260.09
2023-09-13T05:51:03.799Z,100256.03
2023-09-13T05:54:06.347Z,100258.56
2023-09-13T05:57:08.726Z,100263.28
2023-09-13T06:00:12.427Z,100260.22
2023-09-13T06:03:16.920Z,100267.31
2023-09-13T06:06:19.481Z,100269.75
2023-09-13T06:09:23.334Z,100270.13
2023-09-13T06:12:25.933Z,100267.44
2023-09-13T06:15:28.517Z,100278.97
2023-09-13T06:18:30.941Z,100279.88
2023-09-13T06:21:33.915Z,100287.88
2023-09-13T06:24:36.811Z,100285.06
2023-09-13T06:27:39.249Z,100288.06
2023-09-13T06:30:56.946Z,100293.22
2023-09-13T07:45:03.852Z,100311.38
2023-09-13T07:48:06.590Z,100316.22
2023-09-13T07:51:09.155Z,100303.94
2023-09-13T07:54:11.978Z,100308.03
2023-09-13T07:57:14.673Z,100311.31
2023-09-13T08:00:17.311Z,100310.94
2023-09-13T08:03:19.720Z,100312.31
2023-09-13T08:06:23.672Z,100306.31
2023-09-13T08:09:26.521Z,100317.84
2023-09-13T08:12:28.877Z,100301.63
2023-09-13T08:15:43.315Z,100319.34
2023-09-13T08:18:51.730Z,100321.84
2023-09-13T08:21:54.122Z,100320.34
2023-09-13T08:24:56.507Z,100314.41
2023-09-13T08:27:58.896Z,100320.94
2023-09-13T08:31:02.502Z,100314.47
2023-09-13T08:34:05.002Z,100318.34
2023-09-13T08:37:07.426Z,100310.47
2023-09-13T08:40:11.312Z,100313.28
2023-09-13T08:43:13.824Z,100314.59
2023-09-13T08:46:16.350Z,100313.31
2023-09-13T08:49:18.774Z,100313.41
2023-09-13T08:52:21.506Z,100327.13
2023-09-13T08:55:24.219Z,100323.75
2023-09-13T08:58:27.078Z,100325.66
2023-09-13T09:01:29.648Z,100325.03
2023-09-13T09:04:32.144Z,100325.81
2023-09-13T09:07:34.615Z,100319.28
2023-09-13T09:10:37.170Z,100326.84
2023-09-13T09:13:40.188Z,100324.34
2023-09-13T09:16:44.304Z,100314.66
2023-09-13T09:19:46.931Z,100331.63
2023-09-13T09:22:49.462Z,100332.03
2023-09-13T09:25:52.532Z,100329.41
2023-09-13T09:28:55.777Z,100337.66
2023-09-13T09:31:59.559Z,100337.78
2023-09-13T09:42:17.952Z,100330.44
2023-09-13T09:45:21.018Z,100334.28
2023-09-13T09:48:23.695Z,100335.91
2023-09-13T09:51:26.107Z,100331.97
2023-09-13T09:54:28.506Z,100330.38
2023-09-13T09:57:31.216Z,100340.16
2023-09-13T10:00:47.755Z,100337.53
2023-09-13T10:03:52.265Z,100342.41
2023-09-13T10:07:07.803Z,100329.50
2023-09-13T10:10:12.991Z,100338.50
2023-09-13T10:13:15.987Z,100329.31
2023-09-13T10:16:18.859Z,100334.81
2023-09-13T10:19:21.350Z,100331.38
2023-09-13T10:22:26.690Z,100308.38
2023-09-13T10:25:31.340Z,100320.91
2023-09-13T10:28:36.276Z,100323.63
2023-09-13T10:31:42.757Z,100318.53
2023-09-13T10:34:50.798Z,100315.41
2023-09-13T10:37:53.814Z,100319.13
2023-09-13T10:41:06.913Z,100322.72
2023-09-13T10:44:10.488Z,100315.50
2023-09-13T10:47:13.138Z,100318.56
2023-09-13T10:50:16.356Z,100312.66
2023-09-13T10:53:18.963Z,100314.72
2023-09-13T10:56:21.382Z,100309.66
2023-09-13T10:59:23.896Z,100307.41
2023-09-13T11:02:27.586Z,100311.84
2023-09-13T11:05:30.045Z,100304.06
2023-09-13T11:08:36.602Z,100310.00
2023-09-13T11:11:39.089Z,100287.38
2023-09-13T11:14:48.337Z,100290.75
2023-09-13T11:18:11.681Z,100295.88
2023-09-13T11:21:26.489Z,100309.25
2023-09-13T11:24:55.757Z,100300.75
2023-09-13T11:28:06.274Z,100303.59
2023-09-13T11:31:09.626Z,100304.72
2023-09-13T11:34:13.532Z,100301.91
2023-09-13T11:37:16.001Z,100306.16
2023-09-13T11:40:18.560Z,100304.78
2023-09-13T11:43:33.734Z,100301.31
2023-09-13T11:46:37.805Z,100297.66
2023-09-13T11:49:43.524Z,100287.25
2023-09-13T11:53:14.746Z,100288.78
2023-09-13T11:59:43.217Z,100289.53
2023-09-13T12:02:46.499Z,100296.59
2023-09-13T12:06:07.568Z,100285.25
2023-09-13T12:09:20.319Z,100285.63
2023-09-13T12:12:33.823Z,100281.47
2023-09-13T12:19:11.964Z,100287.75
2023-09-13T12:22:15.715Z,100275.75
2023-09-13T12:25:18.444Z,100271.59
2023-09-13T12:28:28.078Z,100276.06
2023-09-13T12:31:30.624Z,100275.44
2023-09-13T12:34:33.089Z,100275.38
2023-09-13T12:37:35.556Z,100286.56
2023-09-13T12:40:38.115Z,100277.88
2023-09-13T12:43:43.732Z,100276.91
2023-09-13T12:46:46.383Z,100262.59
2023-09-13T12:49:51.372Z,100252.34
2023-09-13T12:52:53.982Z,100258.91
2023-09-13T12:55:56.439Z,100263.88
2023-09-13T12:58:59.136Z,100257.91
2023-09-13T13:02:01.616Z,100254.31
2023-09-13T13:05:04.776Z,100255.03
2023-09-13T13:08:07.622Z,100248.84
2023-09-13T13:11:10.947Z,100225.09
2023-09-13T13:14:18.600Z,100240.59
2023-09-13T13:17:23.692Z,100250.41
2023-09-13T13:20:27.924Z,100243.34
2023-09-13T13:23:30.458Z,100237.41
2023-09-13T13:26:32.843Z,100231.28
2023-09-13T13:29:36.329Z,100239.78
2023-09-13T13:32:39.682Z,100242.28
2023-09-13T13:35:42.104Z,100227.13
2023-09-13T13:38:44.463Z,100221.91
2023-09-13T13:41:46.875Z,100207.84
2023-09-13T13:44:49.316Z,100211.06
2023-09-13T13:47:51.691Z,100205.31
2023-09-13T13:50:54.122Z,100204.06
2023-09-13T13:53:56.510Z,100204.66
2023-09-13T13:57:00.988Z,100211.56
2023-09-13T14:00:03.638Z,100208.84
2023-09-13T14:03:14.705Z,100201.53
2023-09-13T14:06:17.182Z,100207.81
2023-09-13T14:09:19.623Z,100201.91
2023-09-13T14:12:22.066Z,100203.00
2023-09-13T14:15:24.489Z,100201.69
2023-09-13T14:18:27.064Z,100206.03
2023-09-13T14:21:29.571Z,100191.72
2023-09-13T14:24:32.042Z,100201.72
2023-09-13T14:27:44.521Z,100196.88
2023-09-13T14:30:59.747Z,100188.25
2023-09-13T14:34:03.962Z,100186.94
2023-09-13T14:37:09.574Z,100186.69
2023-09-13T14:40:11.978Z,100189.28
2023-09-13T14:43:14.387Z,100186.09
2023-09-13T14:46:17.091Z,100184.66
2023-09-13T14:49:21.509Z,100176.44
2023-09-13T14:52:25.292Z,100187.81
2023-09-13T14:55:27.780Z,100189.94
2023-09-13T14:58:30.178Z,100177.22
2023-09-13T15:01:32.654Z,100187.06
2023-09-13T15:04:35.048Z,100186.25
2023-09-13T15:07:38.208Z,100177.91
2023-09-13T15:10:40.867Z,100178.44
2023-09-13T15:13:44.423Z,100184.91
2023-09-13T15:16:46.901Z,100178.41
2023-09-13T15:19:49.325Z,100187.78
2023-09-13T15:22:51.739Z,100183.63
2023-09-13T15:25:54.119Z,100177.03
2023-09-13T15:28:58.215Z,100186.19
2023-09-13T15:35:06.485Z,100185.72
2023-09-13T15:38:09.352Z,100187.66
2023-09-13T15:41:18.201Z,100182.97
2023-09-13T15:44:20.717Z,100192.38
2023-09-13T15:47:23.676Z,100181.53
2023-09-13T15:50:26.155Z,100188.91
2023-09-13T15:53:28.627Z,100184.50
2023-09-13T15:56:32.734Z,100171.94
2023-09-13T15:59:36.095Z,100170.72
2023-09-13T16:02:38.627Z,100181.53
2023-09-13T16:05:43.367Z,100183.72
2023-09-13T16:08:46.036Z,100182.41
2023-09-13T16:11:49.038Z,100178.94
2023-09-13T16:14:51.562Z,100175.00
2023-09-13T16:17:53.999Z,100175.16
2023-09-13T16:20:56.423Z,100179.69
2023-09-13T16:23:58.818Z,100180.44
2023-09-13T16:27:01.179Z,100174.13
2023-09-13T16:30:04.877Z,100177.06
2023-09-13T16:33:07.301Z,100160.66
2023-09-13T16:36:09.717Z,100180.59
2023-09-13T16:39:14.126Z,100180.22
2023-09-13T16:42:16.596Z,100170.22
2023-09-13T16:45:23.784Z,100173.63
2023-09-13T16:48:34.315Z,100169.16
2023-09-13T16:51:37.652Z,100174.72
2023-09-13T16:54:40.762Z,100173.28
2023-09-13T16:57:43.235Z,100171.75
2023-09-13T17:00:45.882Z,100172.84
2023-09-13T17:03:49.927Z,100170.56
2023-09-13T17:06:52.834Z,100166.25
2023-09-13T17:09:55.347Z,100169.28
2023-09-13T17:12:57.865Z,100163.09
2023-09-13T17:16:00.394Z,100171.59
2023-09-13T17:19:03.212Z,100164.66
2023-09-13T17:22:05.810Z,100162.22
2023-09-13T17:25:08.532Z,100164.19
2023-09-13T17:28:10.999Z,100163.31
2023-09-13T17:31:13.735Z,100153.84
2023-09-13T17:34:16.190Z,100160.03
2023-09-13T17:37:19.421Z,100160.78
2023-09-13T17:40:21.914Z,100173.22
2023-09-13T17:43:24.388Z,100180.66
2023-09-13T17:46:26.954Z,100187.25
2023-09-13T17:49:29.389Z,100190.00
2023-09-13T17:52:31.785Z,100187.38
2023-09-13T17:55:34.302Z,100191.69
2023-09-13T17:58:36.715Z,100190.94
2023-09-13T18:01:41.346Z,100192.72
2023-09-13T18:04:44.076Z,100197.44
2023-09-13T18:07:47.449Z,100197.56
2023-09-13T18:10:49.862Z,100200.84
2023-09-13T18:13:52.236Z,100192.66
2023-09-13T18:16:55.701Z,100202.00
2023-09-13T18:19:58.738Z,100200.94
2023-09-13T18:23:01.209Z,100198.63
2023-09-13T18:26:06.333Z,100191.75
2023-09-13T18:29:08.756Z,100196.06
2023-09-13T18:32:11.362Z,100186.63
2023-09-13T18:35:13.897Z,100198.34
2023-09-13T18:38:17.191Z,100202.94
2023-09-13T18:41:19.724Z,100198.56
2023-09-13T18:44:22.449Z,100194.03
2023-09-13T18:47:25.738Z,100194.09
2023-09-13T18:50:28.253Z,100192.06
2023-09-13T18:53:30.922Z,100186.25
2023-09-13T18:56:33.319Z,100184.81
2023-09-13T18:59:38.474Z,100199.91
2023-09-13T19:02:41.370Z,100201.59
2023-09-13T19:05:43.830Z,100193.44
2023-09-13T19:08:50.977Z,100201.06
2023-09-13T19:11:54.849Z,100196.38
2023-09-13T19:14:57.297Z,100192.41
2023-09-13T19:17:59.729Z,100197.44
2023-09-13T19:21:02.462Z,100194.53
2023-09-13T19:24:05.220Z,100202.53
2023-09-13T19:27:07.647Z,100202.00
2023-09-13T19:30:10.668Z,100213.25
2023-09-13T19:33:13.039Z,100212.00
2023-09-13T19:36:15.461Z,100209.94
2023-09-13T19:39:17.885Z,100216.03
2023-09-13T19:42:20.300Z,100214.97
2023-09-13T19:45:22.804Z,100219.22
2023-09-13T19:48:26.271Z,100209.78
2023-09-13T19:51:30.126Z,100223.31
2023-09-13T19:54:32.746Z,100230.97
2023-09-13T19:57:35.199Z,100227.34
2023-09-13T20:00:37.640Z,100222.28
2023-09-13T20:03:40.362Z,100229.97
2023-09-13T20:06:43.448Z,100227.59
2023-09-13T20:09:46.219Z,100227.34
2023-09-13T20:12:48.728Z,100232.13
2023-09-13T20:15:51.216Z,100227.59
2023-09-13T20:18:53.706Z,100232.34
2023-09-13T20:21:56.215Z,100231.00
2023-09-13T20:24:59.131Z,100237.88
2023-09-13T20:28:03.795Z,100234.41
2023-09-13T20:31:06.719Z,100241.28
2023-09-13T20:34:09.274Z,100241.75
2023-09-13T20:37:11.784Z,100237.50
2023-09-13T20:40:14.210Z,100235.34
2023-09-13T20:43:16.657Z,100237.72
2023-09-13T20:46:19.296Z,100234.22
2023-09-13T20:49:21.744Z,100241.34
2023-09-13T20:52:24.142Z,100249.00
2023-09-13T20:55:26.637Z,100246.63
2023-09-13T20:58:29.060Z,100257.22
2023-09-13T21:01:31.518Z,100252.69
2023-09-13T21:04:34.112Z,100258.03
2023-09-13T21:07:36.522Z,100257.50
2023-09-13T21:10:39.717Z,100265.97
2023-09-13T21:13:42.139Z,100268.09
2023-09-13T21:16:44.550Z,100264.69
2023-09-13T21:19:47.067Z,100266.03
2023-09-13T21:22:49.493Z,100272.16
2023-09-13T21:25:52.648Z,100270.31
2023-09-13T21:28:55.019Z,100280.59
2023-09-13T21:31:57.468Z,100284.28
2023-09-13T21:35:03.099Z,100285.88
2023-09-13T21:38:05.949Z,100290.34
2023-09-13T21:41:08.975Z,100283.22
2023-09-13T21:44:11.411Z,100278.69
2023-09-13T21:47:13.836Z,100289.78
2023-09-13T21:50:16.334Z,100279.47
2023-09-13T21:53:18.897Z,100281.06
2023-09-13T21:56:21.346Z,100280.00
2023-09-13T21:59:23.831Z,100268.91
2023-09-13T22:02:27.065Z,100284.44
2023-09-13T22:05:31.451Z,100288.97
2023-09-13T22:08:33.965Z,100289.53
2023-09-13T22:11:36.507Z,100293.25
2023-09-13T22:14:39.061Z,100292.72
2023-09-13T22:17:41.628Z,100294.56
2023-09-13T22:20:44.118Z,100291.69
2023-09-13T22:23:46.596Z,100294.56
2023-09-13T22:26:49.261Z,100300.66
2023-09-13T22:29:52.110Z,100314.13
2023-09-13T22:32:54.613Z,100311.81
2023-09-13T22:35:58.012Z,100315.53
2023-09-13T22:39:08.902Z,100312.34
2023-09-13T22:42:12.312Z,100308.94
2023-09-13T22:45:15.003Z,100306.31
2023-09-13T22:48:17.489Z,100309.75
2023-09-13T22:51:20.050Z,100306.84
2023-09-13T22:54:22.903Z,100314.78
2023-09-13T22:57:25.472Z,100313.72
2023-09-13T23:00:28.147Z,100311.84
2023-09-13T23:03:43.881Z,100320.84
2023-09-13T23:06:48.307Z,100321.38
2023-09-13T23:09:50.883Z,100305.84
2023-09-13T23:12:54.897Z,100315.34
2023-09-13T23:16:06.145Z,100316.66
2023-09-13T23:19:09.415Z,100324.84
2023-09-13T23:22:11.812Z,100314.78
2023-09-13T23:25:14.189Z,100322.41
2023-09-13T23:28:16.613Z,100318.94
2023-09-13T23:31:19.486Z,100319.44
2023-09-13T23:34:22.038Z,100330.31
2023-09-13T23:37:24.463Z,100323.16
2023-09-13T23:40:26.854Z,100325.59
2023-09-13T23:43:30.332Z,100315.53
2023-09-13T23:46:32.853Z,100312.91
2023-09-13T23:49:35.321Z,100315.84
2023-09-13T23:52:37.700Z,100306.09
2023-09-13T23:55:40.361Z,100322.22
2023-09-13T23:58:42.765Z,100316.16
